Aeroboteco Virtual Airlines! Uma nuvem a frente.



 INFORMAÇÕES METEOROLÓGICAS
METAR FOR LSZL
ADDS - METARS form results

(1518 UTC 07 August 2022)
Data provider http://aviationweather.gov/metar/data/
 
METAR text: LSZL 071450Z AUTO 26004KT 240V300 9999NDV FEW064 29/19 Q1014 RMK
Conditions at: LSZL (LOCARNO , CH) observed 1450 UTC 07 August 2022
Temperature: 29.0°C (84°F)
Dewpoint: 19.0°C (66°F) [RH = 55%]
Pressure (altimeter): 29.94 inches Hg (1014.0 mb)
Winds: from the W (260 degrees) at 5 MPH (4 knots; 2.1 m/s)
Visibility: missing
Ceiling: at least 12,000 feet AGL
Clouds: few clouds at 6400 feet AGL
Weather: no significant weather observed at this time

METAR text: LSZL 071420Z AUTO 24005KT 190V280 9999NDV FEW062 29/19 Q1014 RMK
Conditions at: LSZL (LOCARNO , CH) observed 1420 UTC 07 August 2022
Temperature: 29.0°C (84°F)
Dewpoint: 19.0°C (66°F) [RH = 55%]
Pressure (altimeter): 29.94 inches Hg (1014.0 mb)
Winds: from the WSW (240 degrees) at 6 MPH (5 knots; 2.6 m/s)
Visibility: missing
Ceiling: at least 12,000 feet AGL
Clouds: few clouds at 6200 feet AGL
Weather: no significant weather observed at this time

Forecast for: LSZL (LOCARNO , CH)
Text: TAF LSZL 071125Z 0712/0721 25006KT 9999 FEW037
Forecast period: 1200 to 2100 UTC 07 August 2022
Forecast type: FROM: standard forecast or significant change
Winds: from the WSW (250 degrees) at 7 MPH (6 knots; 3.1 m/s)
Visibility: 6 or more miles (10+ km)
Ceiling: at least 12,000 feet AGL
Clouds: few clouds at 3700 feet AGL
Weather: no significant weather forecast for this period
Text: TEMPO 0712/0721 SHRA SCT060TCU
Forecast period: 1200 to 2100 UTC 07 August 2022
Forecast type: TEMPORARY: The following changes expected for less than half the time period
Visibility: missing
Ceiling: at least 12,000 feet AGL
Clouds: scattered clouds at 6000 feet AGL
Weather: SHRA  (rain showers)
Text: PROB40
Forecast period: 1400 to 1900 UTC 07 August 2022
Forecast type: TEMPORARY: The following changes expected for less than half the time period
Winds: from the E (100 degrees) at 15 MPH (13 knots; 6.7 m/s)
gusting to 29 MPH (25 knots; 12.9 m/s)
Visibility: 2.49 miles (4.01 km)
Ceiling: at least 12,000 feet AGL
Clouds: scattered clouds at 5000 feet AGL
Weather: TSRA  (rain associated with thunderstorm(s))

 MAPA DO AEROPORTO

 INFORMAÇÕES DA PISTA
Pista 08C Tamanho da pista 2297 ft Largura da pista 98 ft
Elevação da pista 0 ft Ranhura da pista 0 ft Proa da pista 0
Pista 26C Tamanho da pista 2297 ft Largura da pista 98 ft
Elevação da pista 0 ft Ranhura da pista 0 ft Proa da pista 0
Pista 08L Tamanho da pista 2625 ft Largura da pista 75 ft
Elevação da pista 650 ft Ranhura da pista 0 ft Proa da pista 0
Pista 26R Tamanho da pista 2625 ft Largura da pista 75 ft
Elevação da pista 650 ft Ranhura da pista 0 ft Proa da pista 0

 FREQUÊNCIAS DO AEROPORTO

 AUXÍLIOS DE NAVEGAÇÃO PRÓXIMOS AO AEROPORTO